NCAR-RAP Real-Time Weather Data

Output produced by METARs form (08 May 2021  16:50 UTC)
found at http://weather.rap.ucar.edu/surface/
 
KTPA 081553Z 03008KT 10SM FEW075 FEW280 28/07 A3013 RMK AO2 SLP203 T02780072
KTPA 081453Z 07014KT 10SM FEW035 FEW280 26/07 A3013 RMK AO2 SLP201 T02610067 50002
KTPA 081353Z 03008KT 10SM FEW030 FEW280 24/06 A3013 RMK AO2 SLP203 T02440061 $
KTPA 081253Z 05006KT 10SM FEW030 FEW280 22/07 A3013 RMK AO2 SLP203 T02220067 $
KTPA 081153Z 03008KT 10SM FEW030 FEW280 20/07 A3012 RMK AO2 SLP199 T02000067 10211 20194 53023 $
KTPA 081053Z 02008KT 10SM FEW280 19/08 A3009 RMK AO2 SLP189 T01940078 $
KTPA 080953Z 02007KT 10SM CLR 19/09 A3007 RMK AO2 SLP181 T01940089 $
KTPA 080853Z 03006KT 10SM CLR 20/09 A3005 RMK AO2 SLP177 T02000089 55005 $
KTPA 080753Z 03004KT 10SM CLR 21/11 A3005 RMK AO2 SLP175 T02060111 $
KTPA 080653Z 02005KT 10SM CLR 21/13 A3006 RMK AO2 SLP177 T02110133 $
KTPA 080553Z 35004KT 10SM CLR 21/14 A3007 RMK AO2 SLP182 T02060144 10256 20206 58001 $
KTPA 080453Z 36003KT 10SM CLR 21/13 A3007 RMK AO2 SLP182 T02110133 402940211 $
KTPA 080353Z 34003KT 10SM CLR 22/14 A3007 RMK AO2 SLP183 T02170139 $
KTPA 080253Z 33004KT 10SM CLR 22/13 A3007 RMK AO2 SLP183 T02220128 53020 $
KTPA 080153Z 32005KT 10SM CLR 23/13 A3005 RMK AO2 SLP176 T02280128 $
KTPA 080053Z 31007KT 270V340 10SM CLR 24/12 A3003 RMK AO2 SLP167 T02390117 $
KTPA 072353Z 31008KT 10SM CLR 25/11 A3001 RMK AO2 SLP163 T02500106 10294 20250 51001
KTPA 072253Z 30009G19KT 270V330 10SM CLR 27/09 A3001 RMK AO2 SLP163 T02670094
KTPA 072153Z 33015G21KT 10SM CLR 27/09 A3001 RMK AO2 SLP163 T02720089
KTPA 072053Z 33012G18KT 10SM CLR 28/09 A3001 RMK AO2 SLP162 T02830089 58013
KTPA 071953Z 32013KT 10SM CLR 29/08 A3003 RMK AO2 SLP167 T02890083
KTPA 071853Z 31012G18KT 10SM CLR 29/08 A3004 RMK AO2 SLP171 T02890083
KTPA 071753Z 32013KT 10SM CLR 28/08 A3005 RMK AO2 SLP175 T02830083 10294 20228 58008
KTPA 071653Z 30011G20KT 260V330 10SM CLR 29/07 A3006 RMK AO2 SLP179 T02940072
KTPA 071553Z 36010G18KT 10SM FEW050 28/08 A3008 RMK AO2 SLP184 T02780078
KTPA 071453Z 36008KT 10SM FEW050 27/09 A3007 RMK AO2 SLP183 T02670094 51008
KTPA 071353Z 35010KT 10SM FEW050 26/12 A3007 RMK AO2 SLP182 T02560117
KTPA 071253Z 36010KT 10SM FEW030 23/12 A3006 RMK AO2 SLP180 T02330122 $
KTPA 071153Z COR 36011KT 10SM FEW030 23/13 A3005 RMK AO2 SLP175 70016 T02280133 10250 20222 53018
KTPA 071053Z 36011KT 10SM FEW039 SCT055 23/16 A3002 RMK AO2 SLP165 T02330161
KTPA 070953Z 31003KT 10SM CLR 23/20 A3000 RMK AO2 SLP158 T02330200
KTPA 070853Z 32004KT 10SM CLR 23/21 A3000 RMK AO2 SLP157 T02330206 55006 $
KTPA 070753Z 33005KT 10SM CLR 24/21 A2999 RMK AO2 SLP154 T02390206 $
KTPA 070653Z 31005KT 10SM FEW028 24/21 A3000 RMK AO2 SLP158 T02440211 $
KTPA 070553Z 32003KT 10SM CLR 25/21 A3001 RMK AO2 SLP163 T02500211 10278 20250 58004 $
KTPA 070453Z 00000KT 10SM FEW023 25/21 A3002 RMK AO2 SLP166 T02500211 403330250 $
KTPA 070353Z 32004KT 10SM FEW023 25/21 A3003 RMK AO2 SLP168 T02500211 $
KTPA 070253Z 32005KT 10SM SCT023 26/22 A3003 RMK AO2 SLP167 T02560217 53007 $
KTPA 070153Z 32004KT 10SM SCT022 26/21 A2999 RMK AO2 SLP153 T02610211 $
KTPA 070053Z 32004KT 10SM FEW022 BKN250 27/22 A2997 RMK AO2 PRESFR SLP147 FRQ LTGIC DSNT E CB DSNT E T02670217 $
KTPA 062353Z 29011KT 10SM SCT025 BKN300 28/22 A3000 RMK AO2 SLP159 T02780217 10333 20278 53006 $
KTPA 062253Z 27012G18KT 10SM BKN030TCU BKN300 29/22 A3000 RMK AO2 SLP159 TCU NE T02890222 $
KTPA 062153Z 27011KT 10SM SCT025 BKN300 30/23 A2998 RMK AO2 SLP151 T03000228 $
KTPA 062053Z 27011KT 10SM SCT035 BKN300 31/22 A2998 RMK AO2 SLP153 T03060222 58014 $
KTPA 061953Z 27011KT 10SM SCT030TCU BKN110 31/22 A3000 RMK AO2 SLP158 TCU N-E T03060217
KTPA 061853Z 28009G18KT 10SM SCT030 32/22 A3001 RMK AO2 SLP163 TCU SE T03170222
KTPA 061753Z 28010KT 10SM SCT040 SCT110 32/22 A3002 RMK AO2 SLP166 60016 T03170222 10317 20261 58012
KTPA 061653Z 23008KT 10SM SCT040 SCT140 31/23 A3004 RMK AO2 SLP171 T03060228